sensor_id;sensor_type;location;lat;lon;timestamp;P1;durP1;ratioP1;P2;durP2;ratioP2
23001;SDS011;11667;51.706;4.856;2022-12-20T00:01:42;7.00;;;4.92;;
23001;SDS011;11667;51.706;4.856;2022-12-20T00:04:12;8.58;;;4.85;;
23001;SDS011;11667;51.706;4.856;2022-12-20T00:06:41;11.18;;;5.10;;
23001;SDS011;11667;51.706;4.856;2022-12-20T00:09:10;8.58;;;5.03;;
23001;SDS011;11667;51.706;4.856;2022-12-20T00:11:40;10.20;;;5.25;;
23001;SDS011;11667;51.706;4.856;2022-12-20T00:14:10;7.15;;;4.65;;
23001;SDS011;11667;51.706;4.856;2022-12-20T00:16:39;6.55;;;4.53;;
23001;SDS011;11667;51.706;4.856;2022-12-20T00:19:09;7.40;;;4.80;;
23001;SDS011;11667;51.706;4.856;2022-12-20T00:21:39;8.05;;;4.70;;
23001;SDS011;11667;51.706;4.856;2022-12-20T00:24:09;7.25;;;4.53;;
23001;SDS011;11667;51.706;4.856;2022-12-20T00:26:38;8.98;;;4.50;;
23001;SDS011;11667;51.706;4.856;2022-12-20T00:29:08;6.28;;;4.47;;
23001;SDS011;11667;51.706;4.856;2022-12-20T00:31:38;8.15;;;4.33;;
23001;SDS011;11667;51.706;4.856;2022-12-20T00:34:08;7.30;;;4.30;;
23001;SDS011;11667;51.706;4.856;2022-12-20T00:36:38;9.55;;;4.50;;
23001;SDS011;11667;51.706;4.856;2022-12-20T00:39:08;6.35;;;4.20;;
23001;SDS011;11667;51.706;4.856;2022-12-20T00:41:37;6.55;;;3.90;;
23001;SDS011;11667;51.706;4.856;2022-12-20T00:44:07;6.35;;;4.47;;
23001;SDS011;11667;51.706;4.856;2022-12-20T00:46:36;7.62;;;4.65;;
23001;SDS011;11667;51.706;4.856;2022-12-20T00:49:07;8.20;;;4.83;;
23001;SDS011;11667;51.706;4.856;2022-12-20T00:51:36;8.28;;;4.80;;
23001;SDS011;11667;51.706;4.856;2022-12-20T00:54:06;7.15;;;4.75;;
23001;SDS011;11667;51.706;4.856;2022-12-20T00:56:35;10.68;;;5.15;;
23001;SDS011;11667;51.706;4.856;2022-12-20T00:59:04;10.35;;;5.35;;
23001;SDS011;11667;51.706;4.856;2022-12-20T01:01:34;8.38;;;5.40;;
23001;SDS011;11667;51.706;4.856;2022-12-20T01:04:03;8.03;;;5.10;;
23001;SDS011;11667;51.706;4.856;2022-12-20T01:06:33;8.93;;;5.22;;
23001;SDS011;11667;51.706;4.856;2022-12-20T01:09:04;8.90;;;5.20;;
23001;SDS011;11667;51.706;4.856;2022-12-20T01:11:34;9.55;;;5.20;;
23001;SDS011;11667;51.706;4.856;2022-12-20T01:14:09;10.75;;;5.70;;
23001;SDS011;11667;51.706;4.856;2022-12-20T01:16:40;10.70;;;5.85;;
23001;SDS011;11667;51.706;4.856;2022-12-20T01:19:14;9.70;;;5.45;;
23001;SDS011;11667;51.706;4.856;2022-12-20T01:21:44;7.28;;;5.30;;
23001;SDS011;11667;51.706;4.856;2022-12-20T01:24:15;9.80;;;5.45;;
23001;SDS011;11667;51.706;4.856;2022-12-20T01:26:45;9.13;;;5.67;;
23001;SDS011;11667;51.706;4.856;2022-12-20T01:29:17;9.75;;;5.78;;
23001;SDS011;11667;51.706;4.856;2022-12-20T01:31:46;10.75;;;5.83;;
23001;SDS011;11667;51.706;4.856;2022-12-20T01:34:16;12.53;;;5.90;;
23001;SDS011;11667;51.706;4.856;2022-12-20T01:36:46;9.70;;;5.80;;
23001;SDS011;11667;51.706;4.856;2022-12-20T01:39:16;12.65;;;5.75;;
23001;SDS011;11667;51.706;4.856;2022-12-20T01:41:45;12.20;;;5.90;;
23001;SDS011;11667;51.706;4.856;2022-12-20T01:46:50;13.25;;;5.97;;
23001;SDS011;11667;51.706;4.856;2022-12-20T01:49:25;8.65;;;5.97;;
23001;SDS011;11667;51.706;4.856;2022-12-20T01:52:01;11.40;;;6.37;;
23001;SDS011;11667;51.706;4.856;2022-12-20T01:54:31;9.85;;;6.40;;
23001;SDS011;11667;51.706;4.856;2022-12-20T01:57:04;12.63;;;6.60;;
23001;SDS011;11667;51.706;4.856;2022-12-20T01:59:39;11.08;;;6.30;;
23001;SDS011;11667;51.706;4.856;2022-12-20T02:02:10;10.58;;;6.62;;
23001;SDS011;11667;51.706;4.856;2022-12-20T02:04:40;11.70;;;6.87;;
23001;SDS011;11667;51.706;4.856;2022-12-20T02:07:11;13.45;;;7.05;;
23001;SDS011;11667;51.706;4.856;2022-12-20T02:09:43;11.55;;;6.75;;
23001;SDS011;11667;51.706;4.856;2022-12-20T02:12:14;9.63;;;6.50;;
23001;SDS011;11667;51.706;4.856;2022-12-20T02:23:15;9.13;;;6.40;;
23001;SDS011;11667;51.706;4.856;2022-12-20T02:29:09;10.55;;;6.25;;
23001;SDS011;11667;51.706;4.856;2022-12-20T02:31:39;10.82;;;6.30;;
23001;SDS011;11667;51.706;4.856;2022-12-20T02:34:13;9.80;;;6.53;;
23001;SDS011;11667;51.706;4.856;2022-12-20T02:36:44;8.85;;;6.08;;
23001;SDS011;11667;51.706;4.856;2022-12-20T02:39:13;8.70;;;6.22;;
23001;SDS011;11667;51.706;4.856;2022-12-20T02:41:45;8.88;;;5.85;;
23001;SDS011;11667;51.706;4.856;2022-12-20T02:44:25;11.25;;;5.70;;
23001;SDS011;11667;51.706;4.856;2022-12-20T02:47:17;12.33;;;6.12;;
23001;SDS011;11667;51.706;4.856;2022-12-20T02:49:47;11.97;;;5.90;;
23001;SDS011;11667;51.706;4.856;2022-12-20T02:52:17;8.50;;;5.10;;
23001;SDS011;11667;51.706;4.856;2022-12-20T02:54:48;6.92;;;5.20;;
23001;SDS011;11667;51.706;4.856;2022-12-20T03:00:08;11.05;;;5.53;;
23001;SDS011;11667;51.706;4.856;2022-12-20T03:05:26;8.78;;;5.28;;
23001;SDS011;11667;51.706;4.856;2022-12-20T03:07:56;6.97;;;4.78;;
23001;SDS011;11667;51.706;4.856;2022-12-20T03:10:26;8.58;;;4.80;;
23001;SDS011;11667;51.706;4.856;2022-12-20T03:12:55;7.58;;;4.60;;
23001;SDS011;11667;51.706;4.856;2022-12-20T03:15:26;8.80;;;5.00;;
23001;SDS011;11667;51.706;4.856;2022-12-20T03:17:57;7.62;;;5.00;;
23001;SDS011;11667;51.706;4.856;2022-12-20T03:20:27;9.28;;;4.80;;
23001;SDS011;11667;51.706;4.856;2022-12-20T03:22:56;7.15;;;4.45;;
23001;SDS011;11667;51.706;4.856;2022-12-20T03:25:26;7.03;;;4.80;;
23001;SDS011;11667;51.706;4.856;2022-12-20T03:27:56;8.80;;;4.72;;
23001;SDS011;11667;51.706;4.856;2022-12-20T03:30:26;6.83;;;4.60;;
23001;SDS011;11667;51.706;4.856;2022-12-20T03:32:55;9.30;;;5.05;;
23001;SDS011;11667;51.706;4.856;2022-12-20T03:35:25;6.75;;;4.47;;
23001;SDS011;11667;51.706;4.856;2022-12-20T03:37:55;9.23;;;4.62;;
23001;SDS011;11667;51.706;4.856;2022-12-20T03:40:25;7.35;;;4.50;;
23001;SDS011;11667;51.706;4.856;2022-12-20T03:42:54;6.47;;;4.40;;
23001;SDS011;11667;51.706;4.856;2022-12-20T03:45:23;9.75;;;4.28;;
23001;SDS011;11667;51.706;4.856;2022-12-20T03:47:53;6.40;;;4.28;;
23001;SDS011;11667;51.706;4.856;2022-12-20T03:50:23;7.22;;;4.37;;
23001;SDS011;11667;51.706;4.856;2022-12-20T03:52:53;7.35;;;4.65;;
23001;SDS011;11667;51.706;4.856;2022-12-20T03:55:22;8.60;;;4.33;;
23001;SDS011;11667;51.706;4.856;2022-12-20T03:57:52;8.03;;;4.70;;
23001;SDS011;11667;51.706;4.856;2022-12-20T04:00:23;7.75;;;4.30;;
23001;SDS011;11667;51.706;4.856;2022-12-20T04:02:53;8.90;;;4.35;;
23001;SDS011;11667;51.706;4.856;2022-12-20T04:05:24;8.90;;;4.40;;
23001;SDS011;11667;51.706;4.856;2022-12-20T04:07:53;6.92;;;4.53;;
23001;SDS011;11667;51.706;4.856;2022-12-20T04:10:22;6.85;;;4.62;;
23001;SDS011;11667;51.706;4.856;2022-12-20T04:12:52;7.40;;;4.25;;
23001;SDS011;11667;51.706;4.856;2022-12-20T04:15:22;6.70;;;5.00;;
23001;SDS011;11667;51.706;4.856;2022-12-20T04:17:52;8.80;;;4.70;;
23001;SDS011;11667;51.706;4.856;2022-12-20T04:20:24;10.82;;;4.90;;
23001;SDS011;11667;51.706;4.856;2022-12-20T04:22:55;9.38;;;5.40;;
23001;SDS011;11667;51.706;4.856;2022-12-20T04:25:24;9.13;;;5.80;;
23001;SDS011;11667;51.706;4.856;2022-12-20T04:27:54;8.03;;;5.20;;
23001;SDS011;11667;51.706;4.856;2022-12-20T04:30:23;11.97;;;6.12;;
23001;SDS011;11667;51.706;4.856;2022-12-20T04:32:53;8.35;;;5.70;;
23001;SDS011;11667;51.706;4.856;2022-12-20T04:35:23;9.13;;;5.87;;
23001;SDS011;11667;51.706;4.856;2022-12-20T04:37:53;10.60;;;6.12;;
23001;SDS011;11667;51.706;4.856;2022-12-20T04:40:22;10.35;;;5.95;;
23001;SDS011;11667;51.706;4.856;2022-12-20T04:42:53;9.50;;;6.10;;
23001;SDS011;11667;51.706;4.856;2022-12-20T04:45:23;9.80;;;6.62;;
23001;SDS011;11667;51.706;4.856;2022-12-20T04:47:53;10.38;;;6.42;;
23001;SDS011;11667;51.706;4.856;2022-12-20T04:50:24;11.00;;;6.53;;
23001;SDS011;11667;51.706;4.856;2022-12-20T04:52:53;15.53;;;6.97;;
23001;SDS011;11667;51.706;4.856;2022-12-20T04:55:41;10.32;;;6.75;;
23001;SDS011;11667;51.706;4.856;2022-12-20T04:58:10;15.13;;;7.12;;
23001;SDS011;11667;51.706;4.856;2022-12-20T05:00:40;11.25;;;6.85;;
23001;SDS011;11667;51.706;4.856;2022-12-20T05:03:11;12.15;;;6.70;;
23001;SDS011;11667;51.706;4.856;2022-12-20T05:05:41;14.60;;;7.58;;
23001;SDS011;11667;51.706;4.856;2022-12-20T05:08:10;11.38;;;7.28;;
23001;SDS011;11667;51.706;4.856;2022-12-20T05:10:40;12.63;;;7.42;;
23001;SDS011;11667;51.706;4.856;2022-12-20T05:13:10;11.90;;;7.30;;
23001;SDS011;11667;51.706;4.856;2022-12-20T05:15:41;13.18;;;6.95;;
23001;SDS011;11667;51.706;4.856;2022-12-20T05:18:11;9.40;;;6.60;;
23001;SDS011;11667;51.706;4.856;2022-12-20T05:20:42;11.85;;;6.72;;
23001;SDS011;11667;51.706;4.856;2022-12-20T05:23:12;9.75;;;6.75;;
23001;SDS011;11667;51.706;4.856;2022-12-20T05:26:01;9.43;;;6.37;;
23001;SDS011;11667;51.706;4.856;2022-12-20T05:28:45;11.97;;;7.25;;
23001;SDS011;11667;51.706;4.856;2022-12-20T05:31:15;11.60;;;6.90;;
23001;SDS011;11667;51.706;4.856;2022-12-20T05:33:44;11.48;;;6.47;;
23001;SDS011;11667;51.706;4.856;2022-12-20T05:36:15;8.43;;;6.22;;
23001;SDS011;11667;51.706;4.856;2022-12-20T05:38:45;12.05;;;6.37;;
23001;SDS011;11667;51.706;4.856;2022-12-20T05:41:16;9.87;;;6.00;;
23001;SDS011;11667;51.706;4.856;2022-12-20T05:43:48;7.83;;;5.45;;
23001;SDS011;11667;51.706;4.856;2022-12-20T05:46:17;14.68;;;6.12;;
23001;SDS011;11667;51.706;4.856;2022-12-20T05:48:48;8.38;;;5.12;;
23001;SDS011;11667;51.706;4.856;2022-12-20T05:51:18;8.58;;;5.10;;
23001;SDS011;11667;51.706;4.856;2022-12-20T05:53:52;7.65;;;5.45;;
23001;SDS011;11667;51.706;4.856;2022-12-20T05:56:23;9.00;;;5.35;;
23001;SDS011;11667;51.706;4.856;2022-12-20T05:58:52;8.90;;;5.15;;
23001;SDS011;11667;51.706;4.856;2022-12-20T06:01:22;8.70;;;5.25;;
23001;SDS011;11667;51.706;4.856;2022-12-20T06:03:53;9.38;;;5.30;;
23001;SDS011;11667;51.706;4.856;2022-12-20T06:06:23;9.50;;;4.67;;
23001;SDS011;11667;51.706;4.856;2022-12-20T06:08:52;8.58;;;4.85;;
23001;SDS011;11667;51.706;4.856;2022-12-20T06:11:24;7.83;;;4.40;;
23001;SDS011;11667;51.706;4.856;2022-12-20T06:16:26;7.15;;;4.70;;
23001;SDS011;11667;51.706;4.856;2022-12-20T06:18:56;7.67;;;4.53;;
23001;SDS011;11667;51.706;4.856;2022-12-20T06:21:25;6.25;;;4.28;;
23001;SDS011;11667;51.706;4.856;2022-12-20T06:23:56;8.68;;;4.45;;
23001;SDS011;11667;51.706;4.856;2022-12-20T06:26:26;7.80;;;4.30;;
23001;SDS011;11667;51.706;4.856;2022-12-20T06:28:57;5.92;;;3.85;;
23001;SDS011;11667;51.706;4.856;2022-12-20T06:31:30;9.85;;;4.42;;
23001;SDS011;11667;51.706;4.856;2022-12-20T06:34:00;7.40;;;4.12;;
23001;SDS011;11667;51.706;4.856;2022-12-20T06:36:31;9.78;;;4.08;;
23001;SDS011;11667;51.706;4.856;2022-12-20T06:39:00;8.38;;;4.00;;
23001;SDS011;11667;51.706;4.856;2022-12-20T06:41:32;10.13;;;4.35;;
23001;SDS011;11667;51.706;4.856;2022-12-20T06:44:02;8.63;;;3.85;;
23001;SDS011;11667;51.706;4.856;2022-12-20T06:46:32;6.85;;;3.83;;
23001;SDS011;11667;51.706;4.856;2022-12-20T06:49:03;6.92;;;4.30;;
23001;SDS011;11667;51.706;4.856;2022-12-20T06:51:32;7.12;;;4.35;;
23001;SDS011;11667;51.706;4.856;2022-12-20T06:54:03;7.33;;;3.80;;
23001;SDS011;11667;51.706;4.856;2022-12-20T06:56:33;8.45;;;4.10;;
23001;SDS011;11667;51.706;4.856;2022-12-20T07:01:35;7.47;;;3.87;;
23001;SDS011;11667;51.706;4.856;2022-12-20T07:04:04;7.90;;;3.98;;
23001;SDS011;11667;51.706;4.856;2022-12-20T07:06:34;6.72;;;3.98;;
23001;SDS011;11667;51.706;4.856;2022-12-20T07:09:03;8.83;;;3.67;;
23001;SDS011;11667;51.706;4.856;2022-12-20T07:11:33;9.55;;;3.80;;
23001;SDS011;11667;51.706;4.856;2022-12-20T07:14:03;5.50;;;3.72;;
23001;SDS011;11667;51.706;4.856;2022-12-20T07:16:33;7.17;;;3.90;;
23001;SDS011;11667;51.706;4.856;2022-12-20T07:19:03;6.55;;;3.75;;
23001;SDS011;11667;51.706;4.856;2022-12-20T07:21:32;6.33;;;3.80;;
23001;SDS011;11667;51.706;4.856;2022-12-20T07:24:02;7.40;;;3.90;;
23001;SDS011;11667;51.706;4.856;2022-12-20T07:26:32;8.40;;;3.90;;
23001;SDS011;11667;51.706;4.856;2022-12-20T07:29:02;7.70;;;3.75;;
23001;SDS011;11667;51.706;4.856;2022-12-20T07:31:34;7.37;;;3.80;;
23001;SDS011;11667;51.706;4.856;2022-12-20T07:34:04;14.28;;;4.70;;
23001;SDS011;11667;51.706;4.856;2022-12-20T07:36:33;7.25;;;4.12;;
23001;SDS011;11667;51.706;4.856;2022-12-20T07:39:03;6.20;;;3.52;;
23001;SDS011;11667;51.706;4.856;2022-12-20T07:41:33;7.58;;;3.83;;
23001;SDS011;11667;51.706;4.856;2022-12-20T07:44:03;7.22;;;4.05;;
23001;SDS011;11667;51.706;4.856;2022-12-20T07:46:33;7.33;;;3.83;;
23001;SDS011;11667;51.706;4.856;2022-12-20T07:49:03;8.80;;;4.67;;
23001;SDS011;11667;51.706;4.856;2022-12-20T07:51:37;8.45;;;3.72;;
23001;SDS011;11667;51.706;4.856;2022-12-20T07:56:50;5.37;;;3.27;;
23001;SDS011;11667;51.706;4.856;2022-12-20T07:59:22;5.97;;;3.20;;
23001;SDS011;11667;51.706;4.856;2022-12-20T08:01:53;7.08;;;3.47;;
23001;SDS011;11667;51.706;4.856;2022-12-20T08:04:24;5.92;;;3.37;;
23001;SDS011;11667;51.706;4.856;2022-12-20T08:06:55;5.22;;;3.35;;
23001;SDS011;11667;51.706;4.856;2022-12-20T08:09:30;7.15;;;3.42;;
23001;SDS011;11667;51.706;4.856;2022-12-20T08:12:01;7.12;;;3.40;;
23001;SDS011;11667;51.706;4.856;2022-12-20T08:14:33;4.33;;;3.30;;
23001;SDS011;11667;51.706;4.856;2022-12-20T08:17:02;5.47;;;3.45;;
23001;SDS011;11667;51.706;4.856;2022-12-20T08:19:32;6.17;;;3.45;;
23001;SDS011;11667;51.706;4.856;2022-12-20T08:22:01;7.90;;;3.60;;
23001;SDS011;11667;51.706;4.856;2022-12-20T08:24:32;5.95;;;3.58;;
23001;SDS011;11667;51.706;4.856;2022-12-20T08:27:01;10.43;;;3.87;;
23001;SDS011;11667;51.706;4.856;2022-12-20T08:29:31;7.33;;;3.87;;
23001;SDS011;11667;51.706;4.856;2022-12-20T08:32:00;8.80;;;4.53;;
23001;SDS011;11667;51.706;4.856;2022-12-20T08:34:29;7.67;;;4.05;;
23001;SDS011;11667;51.706;4.856;2022-12-20T08:36:59;8.10;;;3.95;;
23001;SDS011;11667;51.706;4.856;2022-12-20T08:39:28;8.33;;;4.35;;
23001;SDS011;11667;51.706;4.856;2022-12-20T08:41:58;7.83;;;4.20;;
23001;SDS011;11667;51.706;4.856;2022-12-20T08:44:28;8.13;;;4.50;;
23001;SDS011;11667;51.706;4.856;2022-12-20T08:46:57;8.58;;;4.62;;
23001;SDS011;11667;51.706;4.856;2022-12-20T08:49:27;11.30;;;4.95;;
23001;SDS011;11667;51.706;4.856;2022-12-20T08:51:56;8.60;;;4.90;;
23001;SDS011;11667;51.706;4.856;2022-12-20T08:54:26;10.20;;;5.10;;
23001;SDS011;11667;51.706;4.856;2022-12-20T08:56:55;12.95;;;5.83;;
23001;SDS011;11667;51.706;4.856;2022-12-20T08:59:24;10.85;;;5.03;;
23001;SDS011;11667;51.706;4.856;2022-12-20T09:01:54;8.35;;;5.05;;
23001;SDS011;11667;51.706;4.856;2022-12-20T09:04:24;10.93;;;5.33;;
23001;SDS011;11667;51.706;4.856;2022-12-20T09:06:53;10.85;;;5.22;;
23001;SDS011;11667;51.706;4.856;2022-12-20T09:09:23;10.85;;;5.40;;
23001;SDS011;11667;51.706;4.856;2022-12-20T09:11:52;10.15;;;5.45;;
23001;SDS011;11667;51.706;4.856;2022-12-20T09:14:22;10.23;;;5.33;;
23001;SDS011;11667;51.706;4.856;2022-12-20T09:16:51;10.10;;;5.53;;
23001;SDS011;11667;51.706;4.856;2022-12-20T09:19:21;15.28;;;5.83;;
23001;SDS011;11667;51.706;4.856;2022-12-20T09:21:50;12.53;;;6.05;;
23001;SDS011;11667;51.706;4.856;2022-12-20T09:24:20;11.38;;;6.12;;
23001;SDS011;11667;51.706;4.856;2022-12-20T09:26:49;12.00;;;6.15;;
23001;SDS011;11667;51.706;4.856;2022-12-20T09:29:19;15.38;;;6.10;;
23001;SDS011;11667;51.706;4.856;2022-12-20T09:31:50;12.73;;;6.53;;
23001;SDS011;11667;51.706;4.856;2022-12-20T09:34:19;11.70;;;5.87;;
23001;SDS011;11667;51.706;4.856;2022-12-20T09:36:49;11.25;;;6.90;;
23001;SDS011;11667;51.706;4.856;2022-12-20T09:39:18;12.82;;;6.30;;
23001;SDS011;11667;51.706;4.856;2022-12-20T09:41:48;11.63;;;6.30;;
23001;SDS011;11667;51.706;4.856;2022-12-20T09:44:19;11.03;;;6.65;;
23001;SDS011;11667;51.706;4.856;2022-12-20T09:46:53;12.23;;;6.50;;
23001;SDS011;11667;51.706;4.856;2022-12-20T09:54:43;11.55;;;6.72;;
23001;SDS011;11667;51.706;4.856;2022-12-20T10:00:26;13.22;;;6.78;;
23001;SDS011;11667;51.706;4.856;2022-12-20T10:02:57;12.40;;;7.22;;
23001;SDS011;11667;51.706;4.856;2022-12-20T10:05:37;11.57;;;6.80;;
23001;SDS011;11667;51.706;4.856;2022-12-20T10:14:57;12.80;;;6.90;;
23001;SDS011;11667;51.706;4.856;2022-12-20T10:22:36;11.43;;;7.10;;
23001;SDS011;11667;51.706;4.856;2022-12-20T10:27:47;12.33;;;7.17;;
23001;SDS011;11667;51.706;4.856;2022-12-20T10:30:19;11.85;;;7.30;;
23001;SDS011;11667;51.706;4.856;2022-12-20T10:32:50;11.33;;;7.60;;
23001;SDS011;11667;51.706;4.856;2022-12-20T10:35:25;13.07;;;7.83;;
23001;SDS011;11667;51.706;4.856;2022-12-20T10:38:02;19.92;;;7.53;;
23001;SDS011;11667;51.706;4.856;2022-12-20T10:40:37;17.10;;;8.28;;
23001;SDS011;11667;51.706;4.856;2022-12-20T10:43:17;12.18;;;7.90;;
23001;SDS011;11667;51.706;4.856;2022-12-20T10:45:54;14.58;;;8.13;;
23001;SDS011;11667;51.706;4.856;2022-12-20T10:48:32;14.73;;;7.92;;
23001;SDS011;11667;51.706;4.856;2022-12-20T10:53:53;16.77;;;8.73;;
23001;SDS011;11667;51.706;4.856;2022-12-20T10:56:26;17.92;;;8.58;;
23001;SDS011;11667;51.706;4.856;2022-12-20T10:59:01;17.70;;;8.75;;
23001;SDS011;11667;51.706;4.856;2022-12-20T11:01:45;16.48;;;8.40;;
23001;SDS011;11667;51.706;4.856;2022-12-20T11:04:26;11.25;;;8.35;;
23001;SDS011;11667;51.706;4.856;2022-12-20T11:07:00;14.30;;;8.75;;
23001;SDS011;11667;51.706;4.856;2022-12-20T11:09:37;16.67;;;9.10;;
23001;SDS011;11667;51.706;4.856;2022-12-20T11:12:14;16.65;;;8.73;;
23001;SDS011;11667;51.706;4.856;2022-12-20T11:14:44;13.53;;;8.80;;
23001;SDS011;11667;51.706;4.856;2022-12-20T11:17:21;16.87;;;8.43;;
23001;SDS011;11667;51.706;4.856;2022-12-20T11:22:32;15.80;;;8.58;;
23001;SDS011;11667;51.706;4.856;2022-12-20T11:30:54;16.17;;;8.20;;
23001;SDS011;11667;51.706;4.856;2022-12-20T11:36:31;15.85;;;8.70;;
23001;SDS011;11667;51.706;4.856;2022-12-20T11:45:00;13.25;;;8.00;;
23001;SDS011;11667;51.706;4.856;2022-12-20T11:50:35;13.15;;;8.43;;
23001;SDS011;11667;51.706;4.856;2022-12-20T11:53:31;14.20;;;8.05;;
23001;SDS011;11667;51.706;4.856;2022-12-20T11:56:14;14.38;;;8.53;;
23001;SDS011;11667;51.706;4.856;2022-12-20T11:58:43;14.73;;;9.05;;
23001;SDS011;11667;51.706;4.856;2022-12-20T12:01:19;15.32;;;8.98;;
23001;SDS011;11667;51.706;4.856;2022-12-20T12:06:35;14.68;;;8.73;;
23001;SDS011;11667;51.706;4.856;2022-12-20T12:09:08;21.37;;;9.10;;
23001;SDS011;11667;51.706;4.856;2022-12-20T12:11:39;13.22;;;8.93;;
23001;SDS011;11667;51.706;4.856;2022-12-20T12:14:17;16.45;;;8.83;;
23001;SDS011;11667;51.706;4.856;2022-12-20T12:16:48;16.52;;;8.95;;
23001;SDS011;11667;51.706;4.856;2022-12-20T12:19:19;19.27;;;8.80;;
23001;SDS011;11667;51.706;4.856;2022-12-20T12:21:50;18.12;;;9.23;;
23001;SDS011;11667;51.706;4.856;2022-12-20T12:24:28;16.00;;;9.60;;
23001;SDS011;11667;51.706;4.856;2022-12-20T12:27:02;15.98;;;8.75;;
23001;SDS011;11667;51.706;4.856;2022-12-20T12:29:34;16.60;;;8.90;;
23001;SDS011;11667;51.706;4.856;2022-12-20T12:32:05;15.15;;;9.25;;
23001;SDS011;11667;51.706;4.856;2022-12-20T12:43:36;17.10;;;10.35;;
23001;SDS011;11667;51.706;4.856;2022-12-20T12:46:17;18.37;;;10.32;;
23001;SDS011;11667;51.706;4.856;2022-12-20T12:49:05;17.10;;;10.65;;
23001;SDS011;11667;51.706;4.856;2022-12-20T12:51:33;14.33;;;9.68;;
23001;SDS011;11667;51.706;4.856;2022-12-20T12:56:47;15.58;;;9.90;;
23001;SDS011;11667;51.706;4.856;2022-12-20T12:59:22;15.65;;;10.13;;
23001;SDS011;11667;51.706;4.856;2022-12-20T13:07:40;18.53;;;10.97;;
23001;SDS011;11667;51.706;4.856;2022-12-20T13:17:50;15.72;;;10.43;;
23001;SDS011;11667;51.706;4.856;2022-12-20T13:20:30;16.42;;;11.00;;
23001;SDS011;11667;51.706;4.856;2022-12-20T13:25:40;19.62;;;10.72;;
23001;SDS011;11667;51.706;4.856;2022-12-20T13:41:32;16.10;;;9.98;;
23001;SDS011;11667;51.706;4.856;2022-12-20T13:47:11;16.70;;;10.38;;
23001;SDS011;11667;51.706;4.856;2022-12-20T13:49:36;18.40;;;10.30;;
23001;SDS011;11667;51.706;4.856;2022-12-20T13:54:54;16.85;;;10.53;;
23001;SDS011;11667;51.706;4.856;2022-12-20T13:57:32;15.90;;;10.43;;
23001;SDS011;11667;51.706;4.856;2022-12-20T14:00:15;14.75;;;10.38;;
23001;SDS011;11667;51.706;4.856;2022-12-20T14:02:54;17.12;;;10.35;;
23001;SDS011;11667;51.706;4.856;2022-12-20T14:05:25;15.25;;;10.35;;
23001;SDS011;11667;51.706;4.856;2022-12-20T14:08:00;19.32;;;10.70;;
23001;SDS011;11667;51.706;4.856;2022-12-20T14:10:38;17.02;;;10.03;;
23001;SDS011;11667;51.706;4.856;2022-12-20T14:13:26;16.97;;;8.18;;
23001;SDS011;11667;51.706;4.856;2022-12-20T14:15:55;11.73;;;5.95;;
23001;SDS011;11667;51.706;4.856;2022-12-20T14:18:28;0.10;;;0.10;;
23001;SDS011;11667;51.706;4.856;2022-12-20T14:20:58;0.20;;;0.20;;
23001;SDS011;11667;51.706;4.856;2022-12-20T14:26:06;0.55;;;0.55;;
23001;SDS011;11667;51.706;4.856;2022-12-20T14:28:42;0.35;;;0.20;;
23001;SDS011;11667;51.706;4.856;2022-12-20T14:31:26;0.08;;;0.08;;
23001;SDS011;11667;51.706;4.856;2022-12-20T14:36:45;1.67;;;1.27;;
23001;SDS011;11667;51.706;4.856;2022-12-20T14:39:28;0.20;;;0.20;;
23001;SDS011;11667;51.706;4.856;2022-12-20T14:44:30;0.42;;;0.42;;
23001;SDS011;11667;51.706;4.856;2022-12-20T14:47:11;0.05;;;0.05;;
23001;SDS011;11667;51.706;4.856;2022-12-20T14:49:56;0.00;;;0.00;;
23001;SDS011;11667;51.706;4.856;2022-12-20T14:52:33;2.17;;;0.45;;
23001;SDS011;11667;51.706;4.856;2022-12-20T14:55:05;0.57;;;0.57;;
23001;SDS011;11667;51.706;4.856;2022-12-20T14:57:44;0.28;;;0.28;;
23001;SDS011;11667;51.706;4.856;2022-12-20T15:00:20;1.10;;;0.90;;
23001;SDS011;11667;51.706;4.856;2022-12-20T15:08:08;0.00;;;0.00;;
23001;SDS011;11667;51.706;4.856;2022-12-20T15:13:45;0.03;;;0.03;;
23001;SDS011;11667;51.706;4.856;2022-12-20T15:16:21;0.20;;;0.20;;
23001;SDS011;11667;51.706;4.856;2022-12-20T15:18:53;0.00;;;0.00;;
23001;SDS011;11667;51.706;4.856;2022-12-20T15:21:30;0.17;;;0.17;;
23001;SDS011;11667;51.706;4.856;2022-12-20T15:24:05;0.03;;;0.03;;
23001;SDS011;11667;51.706;4.856;2022-12-20T15:29:05;0.25;;;0.25;;
23001;SDS011;11667;51.706;4.856;2022-12-20T15:31:34;0.15;;;0.15;;
23001;SDS011;11667;51.706;4.856;2022-12-20T15:34:14;1.02;;;0.88;;
23001;SDS011;11667;51.706;4.856;2022-12-20T15:36:49;0.55;;;0.55;;
23001;SDS011;11667;51.706;4.856;2022-12-20T15:39:18;0.25;;;0.25;;
23001;SDS011;11667;51.706;4.856;2022-12-20T15:41:48;0.98;;;0.95;;
23001;SDS011;11667;51.706;4.856;2022-12-20T15:44:21;0.23;;;0.23;;
23001;SDS011;11667;51.706;4.856;2022-12-20T15:46:51;0.23;;;0.23;;
23001;SDS011;11667;51.706;4.856;2022-12-20T15:49:22;1.62;;;0.65;;
23001;SDS011;11667;51.706;4.856;2022-12-20T15:51:54;0.55;;;0.55;;
23001;SDS011;11667;51.706;4.856;2022-12-20T15:54:25;1.20;;;1.02;;
23001;SDS011;11667;51.706;4.856;2022-12-20T15:56:56;0.42;;;0.42;;
23001;SDS011;11667;51.706;4.856;2022-12-20T15:59:29;1.05;;;0.98;;
23001;SDS011;11667;51.706;4.856;2022-12-20T16:02:00;0.35;;;0.35;;
23001;SDS011;11667;51.706;4.856;2022-12-20T16:04:30;0.17;;;0.17;;
23001;SDS011;11667;51.706;4.856;2022-12-20T16:06:59;0.45;;;0.45;;
23001;SDS011;11667;51.706;4.856;2022-12-20T16:09:30;0.28;;;0.20;;
23001;SDS011;11667;51.706;4.856;2022-12-20T16:11:59;0.28;;;0.28;;
23001;SDS011;11667;51.706;4.856;2022-12-20T16:14:30;0.88;;;0.88;;
23001;SDS011;11667;51.706;4.856;2022-12-20T16:16:59;0.42;;;0.42;;
23001;SDS011;11667;51.706;4.856;2022-12-20T16:19:29;2.22;;;1.02;;
23001;SDS011;11667;51.706;4.856;2022-12-20T16:21:58;0.33;;;0.30;;
23001;SDS011;11667;51.706;4.856;2022-12-20T16:24:27;0.50;;;0.37;;
23001;SDS011;11667;51.706;4.856;2022-12-20T16:26:57;1.07;;;1.00;;
23001;SDS011;11667;51.706;4.856;2022-12-20T16:29:26;0.50;;;0.50;;
23001;SDS011;11667;51.706;4.856;2022-12-20T16:31:55;2.05;;;1.50;;
23001;SDS011;11667;51.706;4.856;2022-12-20T16:34:25;0.08;;;0.08;;
23001;SDS011;11667;51.706;4.856;2022-12-20T16:36:54;2.08;;;1.45;;
23001;SDS011;11667;51.706;4.856;2022-12-20T16:39:24;0.10;;;0.10;;
23001;SDS011;11667;51.706;4.856;2022-12-20T16:41:53;1.10;;;1.00;;
23001;SDS011;11667;51.706;4.856;2022-12-20T16:44:23;0.45;;;0.45;;
23001;SDS011;11667;51.706;4.856;2022-12-20T16:46:52;0.17;;;0.17;;
23001;SDS011;11667;51.706;4.856;2022-12-20T16:49:22;1.00;;;0.88;;
23001;SDS011;11667;51.706;4.856;2022-12-20T16:51:51;0.40;;;0.37;;
23001;SDS011;11667;51.706;4.856;2022-12-20T16:54:21;0.23;;;0.23;;
23001;SDS011;11667;51.706;4.856;2022-12-20T16:56:51;0.17;;;0.17;;
23001;SDS011;11667;51.706;4.856;2022-12-20T16:59:22;0.47;;;0.47;;
23001;SDS011;11667;51.706;4.856;2022-12-20T17:01:52;0.55;;;0.55;;
23001;SDS011;11667;51.706;4.856;2022-12-20T17:04:24;0.65;;;0.65;;
23001;SDS011;11667;51.706;4.856;2022-12-20T17:06:53;14.45;;;2.15;;
23001;SDS011;11667;51.706;4.856;2022-12-20T17:09:23;0.93;;;0.90;;
23001;SDS011;11667;51.706;4.856;2022-12-20T17:11:52;1.62;;;1.52;;
23001;SDS011;11667;51.706;4.856;2022-12-20T17:14:22;2.87;;;2.10;;
23001;SDS011;11667;51.706;4.856;2022-12-20T17:16:51;2.40;;;2.20;;
23001;SDS011;11667;51.706;4.856;2022-12-20T17:19:21;2.83;;;1.60;;
23001;SDS011;11667;51.706;4.856;2022-12-20T17:21:50;0.13;;;0.13;;
23001;SDS011;11667;51.706;4.856;2022-12-20T17:24:38;0.60;;;0.60;;
23001;SDS011;11667;51.706;4.856;2022-12-20T17:27:08;0.57;;;0.57;;
23001;SDS011;11667;51.706;4.856;2022-12-20T17:29:38;0.28;;;0.28;;
23001;SDS011;11667;51.706;4.856;2022-12-20T17:32:16;2.60;;;1.32;;